sensor_id;sensor_type;location;lat;lon;timestamp;P1;durP1;ratioP1;P2;durP2;ratioP2
22176;SDS011;11254;50.098;8.726;2022-11-24T00:01:56;14.75;;;3.53;;
22176;SDS011;11254;50.098;8.726;2022-11-24T00:04:34;9.40;;;3.78;;
22176;SDS011;11254;50.098;8.726;2022-11-24T00:07:10;9.88;;;2.90;;
22176;SDS011;11254;50.098;8.726;2022-11-24T00:09:46;10.30;;;3.50;;
22176;SDS011;11254;50.098;8.726;2022-11-24T00:12:17;9.82;;;2.60;;
22176;SDS011;11254;50.098;8.726;2022-11-24T00:14:46;14.68;;;3.33;;
22176;SDS011;11254;50.098;8.726;2022-11-24T00:17:18;14.82;;;3.78;;
22176;SDS011;11254;50.098;8.726;2022-11-24T00:19:46;8.82;;;3.22;;
22176;SDS011;11254;50.098;8.726;2022-11-24T00:22:17;9.60;;;3.30;;
22176;SDS011;11254;50.098;8.726;2022-11-24T00:24:46;15.20;;;3.35;;
22176;SDS011;11254;50.098;8.726;2022-11-24T00:27:17;13.18;;;3.15;;
22176;SDS011;11254;50.098;8.726;2022-11-24T00:29:47;13.55;;;3.00;;
22176;SDS011;11254;50.098;8.726;2022-11-24T00:32:17;15.15;;;3.40;;
22176;SDS011;11254;50.098;8.726;2022-11-24T00:34:47;11.35;;;3.08;;
22176;SDS011;11254;50.098;8.726;2022-11-24T00:37:19;13.48;;;3.20;;
22176;SDS011;11254;50.098;8.726;2022-11-24T00:39:49;9.57;;;2.97;;
22176;SDS011;11254;50.098;8.726;2022-11-24T00:42:18;6.22;;;2.65;;
22176;SDS011;11254;50.098;8.726;2022-11-24T00:44:48;9.80;;;3.08;;
22176;SDS011;11254;50.098;8.726;2022-11-24T00:47:16;10.82;;;2.72;;
22176;SDS011;11254;50.098;8.726;2022-11-24T00:49:47;10.95;;;2.47;;
22176;SDS011;11254;50.098;8.726;2022-11-24T00:52:15;11.70;;;3.17;;
22176;SDS011;11254;50.098;8.726;2022-11-24T00:54:46;9.57;;;3.10;;
22176;SDS011;11254;50.098;8.726;2022-11-24T00:57:17;8.88;;;3.13;;
22176;SDS011;11254;50.098;8.726;2022-11-24T00:59:46;9.50;;;3.33;;
22176;SDS011;11254;50.098;8.726;2022-11-24T01:02:18;10.65;;;3.17;;
22176;SDS011;11254;50.098;8.726;2022-11-24T01:04:47;13.43;;;3.42;;
22176;SDS011;11254;50.098;8.726;2022-11-24T01:07:16;10.82;;;2.90;;
22176;SDS011;11254;50.098;8.726;2022-11-24T01:09:46;12.38;;;3.13;;
22176;SDS011;11254;50.098;8.726;2022-11-24T01:12:15;12.13;;;3.55;;
22176;SDS011;11254;50.098;8.726;2022-11-24T01:14:45;8.38;;;2.83;;
22176;SDS011;11254;50.098;8.726;2022-11-24T01:17:15;14.18;;;3.05;;
22176;SDS011;11254;50.098;8.726;2022-11-24T01:19:46;6.40;;;2.45;;
22176;SDS011;11254;50.098;8.726;2022-11-24T01:22:16;7.88;;;2.90;;
22176;SDS011;11254;50.098;8.726;2022-11-24T01:24:49;9.38;;;3.10;;
22176;SDS011;11254;50.098;8.726;2022-11-24T01:27:20;7.97;;;3.00;;
22176;SDS011;11254;50.098;8.726;2022-11-24T01:29:49;12.68;;;3.05;;
22176;SDS011;11254;50.098;8.726;2022-11-24T01:32:19;9.80;;;3.03;;
22176;SDS011;11254;50.098;8.726;2022-11-24T01:34:47;14.32;;;3.13;;
22176;SDS011;11254;50.098;8.726;2022-11-24T01:37:16;14.73;;;3.50;;
22176;SDS011;11254;50.098;8.726;2022-11-24T01:39:45;12.27;;;3.45;;
22176;SDS011;11254;50.098;8.726;2022-11-24T01:42:17;11.32;;;3.17;;
22176;SDS011;11254;50.098;8.726;2022-11-24T01:44:46;10.60;;;3.10;;
22176;SDS011;11254;50.098;8.726;2022-11-24T01:47:22;9.75;;;3.20;;
22176;SDS011;11254;50.098;8.726;2022-11-24T01:49:56;16.13;;;3.78;;
22176;SDS011;11254;50.098;8.726;2022-11-24T01:52:33;13.20;;;3.50;;
22176;SDS011;11254;50.098;8.726;2022-11-24T01:55:17;14.40;;;3.53;;
22176;SDS011;11254;50.098;8.726;2022-11-24T01:57:50;13.10;;;3.65;;
22176;SDS011;11254;50.098;8.726;2022-11-24T02:00:30;13.23;;;3.58;;
22176;SDS011;11254;50.098;8.726;2022-11-24T02:03:11;9.63;;;3.05;;
22176;SDS011;11254;50.098;8.726;2022-11-24T02:05:54;9.65;;;3.65;;
22176;SDS011;11254;50.098;8.726;2022-11-24T02:08:34;18.23;;;4.18;;
22176;SDS011;11254;50.098;8.726;2022-11-24T02:11:17;13.55;;;3.67;;
22176;SDS011;11254;50.098;8.726;2022-11-24T02:13:50;9.88;;;3.58;;
22176;SDS011;11254;50.098;8.726;2022-11-24T02:16:22;13.50;;;4.50;;
22176;SDS011;11254;50.098;8.726;2022-11-24T02:18:58;12.55;;;3.60;;
22176;SDS011;11254;50.098;8.726;2022-11-24T02:21:33;17.10;;;3.90;;
22176;SDS011;11254;50.098;8.726;2022-11-24T02:24:15;10.52;;;3.20;;
22176;SDS011;11254;50.098;8.726;2022-11-24T02:26:58;14.48;;;3.70;;
22176;SDS011;11254;50.098;8.726;2022-11-24T02:29:30;11.18;;;3.65;;
22176;SDS011;11254;50.098;8.726;2022-11-24T02:32:10;11.48;;;3.42;;
22176;SDS011;11254;50.098;8.726;2022-11-24T02:34:39;13.57;;;3.58;;
22176;SDS011;11254;50.098;8.726;2022-11-24T02:40:56;11.85;;;2.92;;
22176;SDS011;11254;50.098;8.726;2022-11-24T02:43:34;9.48;;;2.92;;
22176;SDS011;11254;50.098;8.726;2022-11-24T02:46:07;11.85;;;3.22;;
22176;SDS011;11254;50.098;8.726;2022-11-24T02:48:36;11.50;;;2.97;;
22176;SDS011;11254;50.098;8.726;2022-11-24T02:51:05;12.63;;;3.22;;
22176;SDS011;11254;50.098;8.726;2022-11-24T02:53:37;9.45;;;3.17;;
22176;SDS011;11254;50.098;8.726;2022-11-24T02:56:06;14.48;;;3.42;;
22176;SDS011;11254;50.098;8.726;2022-11-24T02:58:37;15.02;;;3.30;;
22176;SDS011;11254;50.098;8.726;2022-11-24T03:01:06;12.68;;;3.17;;
22176;SDS011;11254;50.098;8.726;2022-11-24T03:03:36;12.43;;;3.05;;
22176;SDS011;11254;50.098;8.726;2022-11-24T03:06:05;9.63;;;3.45;;
22176;SDS011;11254;50.098;8.726;2022-11-24T03:08:34;11.10;;;3.30;;
22176;SDS011;11254;50.098;8.726;2022-11-24T03:11:03;12.85;;;3.60;;
22176;SDS011;11254;50.098;8.726;2022-11-24T03:13:31;10.00;;;3.08;;
22176;SDS011;11254;50.098;8.726;2022-11-24T03:16:06;9.20;;;2.90;;
22176;SDS011;11254;50.098;8.726;2022-11-24T03:18:36;12.57;;;3.22;;
22176;SDS011;11254;50.098;8.726;2022-11-24T03:21:05;15.52;;;3.50;;
22176;SDS011;11254;50.098;8.726;2022-11-24T03:23:34;17.27;;;3.50;;
22176;SDS011;11254;50.098;8.726;2022-11-24T03:26:06;14.60;;;3.38;;
22176;SDS011;11254;50.098;8.726;2022-11-24T03:28:35;11.77;;;3.10;;
22176;SDS011;11254;50.098;8.726;2022-11-24T03:31:13;10.68;;;3.53;;
22176;SDS011;11254;50.098;8.726;2022-11-24T03:33:50;11.32;;;3.15;;
22176;SDS011;11254;50.098;8.726;2022-11-24T03:36:19;12.85;;;3.20;;
22176;SDS011;11254;50.098;8.726;2022-11-24T03:38:48;7.40;;;3.00;;
22176;SDS011;11254;50.098;8.726;2022-11-24T03:41:19;10.88;;;3.40;;
22176;SDS011;11254;50.098;8.726;2022-11-24T03:43:47;9.50;;;2.80;;
22176;SDS011;11254;50.098;8.726;2022-11-24T03:46:18;14.13;;;3.28;;
22176;SDS011;11254;50.098;8.726;2022-11-24T03:48:46;10.98;;;2.92;;
22176;SDS011;11254;50.098;8.726;2022-11-24T03:51:16;7.70;;;2.67;;
22176;SDS011;11254;50.098;8.726;2022-11-24T03:53:48;9.77;;;2.95;;
22176;SDS011;11254;50.098;8.726;2022-11-24T03:56:21;11.23;;;3.00;;
22176;SDS011;11254;50.098;8.726;2022-11-24T03:58:52;10.60;;;3.20;;
22176;SDS011;11254;50.098;8.726;2022-11-24T04:01:23;10.93;;;3.35;;
22176;SDS011;11254;50.098;8.726;2022-11-24T04:03:53;11.27;;;3.08;;
22176;SDS011;11254;50.098;8.726;2022-11-24T04:06:23;11.38;;;3.10;;
22176;SDS011;11254;50.098;8.726;2022-11-24T04:08:53;13.48;;;3.00;;
22176;SDS011;11254;50.098;8.726;2022-11-24T04:11:22;10.55;;;2.88;;
22176;SDS011;11254;50.098;8.726;2022-11-24T04:14:10;10.40;;;2.83;;
22176;SDS011;11254;50.098;8.726;2022-11-24T04:16:40;14.93;;;3.50;;
22176;SDS011;11254;50.098;8.726;2022-11-24T04:19:09;14.27;;;3.70;;
22176;SDS011;11254;50.098;8.726;2022-11-24T04:21:37;17.90;;;3.40;;
22176;SDS011;11254;50.098;8.726;2022-11-24T04:24:06;20.40;;;3.15;;
22176;SDS011;11254;50.098;8.726;2022-11-24T04:26:39;15.73;;;3.80;;
22176;SDS011;11254;50.098;8.726;2022-11-24T04:29:10;13.65;;;3.60;;
22176;SDS011;11254;50.098;8.726;2022-11-24T04:31:40;13.43;;;3.70;;
22176;SDS011;11254;50.098;8.726;2022-11-24T04:34:12;22.08;;;4.63;;
22176;SDS011;11254;50.098;8.726;2022-11-24T04:36:43;16.95;;;3.75;;
22176;SDS011;11254;50.098;8.726;2022-11-24T04:39:13;16.75;;;3.95;;
22176;SDS011;11254;50.098;8.726;2022-11-24T04:41:54;14.88;;;3.38;;
22176;SDS011;11254;50.098;8.726;2022-11-24T04:44:27;19.67;;;3.53;;
22176;SDS011;11254;50.098;8.726;2022-11-24T04:47:00;20.45;;;4.22;;
22176;SDS011;11254;50.098;8.726;2022-11-24T04:49:28;18.80;;;3.80;;
22176;SDS011;11254;50.098;8.726;2022-11-24T04:52:06;15.13;;;4.00;;
22176;SDS011;11254;50.098;8.726;2022-11-24T04:54:36;15.65;;;3.72;;
22176;SDS011;11254;50.098;8.726;2022-11-24T04:57:13;22.33;;;4.25;;
22176;SDS011;11254;50.098;8.726;2022-11-24T04:59:44;11.65;;;3.85;;
22176;SDS011;11254;50.098;8.726;2022-11-24T05:02:15;18.73;;;3.53;;
22176;SDS011;11254;50.098;8.726;2022-11-24T05:04:43;17.67;;;4.13;;
22176;SDS011;11254;50.098;8.726;2022-11-24T05:07:15;13.45;;;2.90;;
22176;SDS011;11254;50.098;8.726;2022-11-24T05:09:45;14.93;;;3.42;;
22176;SDS011;11254;50.098;8.726;2022-11-24T05:12:32;16.25;;;3.10;;
22176;SDS011;11254;50.098;8.726;2022-11-24T05:15:19;16.65;;;3.50;;
22176;SDS011;11254;50.098;8.726;2022-11-24T05:18:00;15.63;;;3.83;;
22176;SDS011;11254;50.098;8.726;2022-11-24T05:20:37;11.93;;;3.05;;
22176;SDS011;11254;50.098;8.726;2022-11-24T05:23:14;16.88;;;3.40;;
22176;SDS011;11254;50.098;8.726;2022-11-24T05:25:45;17.77;;;3.17;;
22176;SDS011;11254;50.098;8.726;2022-11-24T05:28:17;21.42;;;3.10;;
22176;SDS011;11254;50.098;8.726;2022-11-24T05:30:49;16.02;;;3.13;;
22176;SDS011;11254;50.098;8.726;2022-11-24T05:33:29;19.45;;;3.35;;
22176;SDS011;11254;50.098;8.726;2022-11-24T05:36:09;16.80;;;3.15;;
22176;SDS011;11254;50.098;8.726;2022-11-24T05:39:10;18.85;;;3.10;;
22176;SDS011;11254;50.098;8.726;2022-11-24T05:41:38;14.02;;;3.50;;
22176;SDS011;11254;50.098;8.726;2022-11-24T05:44:22;10.95;;;2.85;;
22176;SDS011;11254;50.098;8.726;2022-11-24T05:47:07;18.25;;;2.95;;
22176;SDS011;11254;50.098;8.726;2022-11-24T05:49:45;14.55;;;2.88;;
22176;SDS011;11254;50.098;8.726;2022-11-24T05:52:22;15.57;;;3.40;;
22176;SDS011;11254;50.098;8.726;2022-11-24T05:54:56;16.77;;;3.00;;
22176;SDS011;11254;50.098;8.726;2022-11-24T05:57:37;12.88;;;3.13;;
22176;SDS011;11254;50.098;8.726;2022-11-24T06:00:15;18.63;;;3.28;;
22176;SDS011;11254;50.098;8.726;2022-11-24T06:02:55;16.35;;;3.30;;
22176;SDS011;11254;50.098;8.726;2022-11-24T06:05:27;16.05;;;2.90;;
22176;SDS011;11254;50.098;8.726;2022-11-24T06:08:00;10.48;;;2.80;;
22176;SDS011;11254;50.098;8.726;2022-11-24T06:10:38;17.08;;;2.85;;
22176;SDS011;11254;50.098;8.726;2022-11-24T06:13:06;17.13;;;3.10;;
22176;SDS011;11254;50.098;8.726;2022-11-24T06:15:35;21.77;;;3.40;;
22176;SDS011;11254;50.098;8.726;2022-11-24T06:18:17;18.40;;;3.10;;
22176;SDS011;11254;50.098;8.726;2022-11-24T06:20:56;12.98;;;2.70;;
22176;SDS011;11254;50.098;8.726;2022-11-24T06:23:37;16.48;;;2.83;;
22176;SDS011;11254;50.098;8.726;2022-11-24T06:26:05;17.77;;;2.70;;
22176;SDS011;11254;50.098;8.726;2022-11-24T06:28:34;16.83;;;2.90;;
22176;SDS011;11254;50.098;8.726;2022-11-24T06:31:03;12.40;;;2.88;;
22176;SDS011;11254;50.098;8.726;2022-11-24T06:33:32;10.77;;;2.40;;
22176;SDS011;11254;50.098;8.726;2022-11-24T06:36:05;22.60;;;3.33;;
22176;SDS011;11254;50.098;8.726;2022-11-24T06:38:35;13.25;;;2.33;;
22176;SDS011;11254;50.098;8.726;2022-11-24T06:41:04;12.48;;;2.53;;
22176;SDS011;11254;50.098;8.726;2022-11-24T06:43:33;15.60;;;3.13;;
22176;SDS011;11254;50.098;8.726;2022-11-24T06:46:03;13.13;;;3.53;;
22176;SDS011;11254;50.098;8.726;2022-11-24T06:48:38;19.60;;;2.80;;
22176;SDS011;11254;50.098;8.726;2022-11-24T06:51:24;10.77;;;3.22;;
22176;SDS011;11254;50.098;8.726;2022-11-24T06:53:58;12.80;;;2.53;;
22176;SDS011;11254;50.098;8.726;2022-11-24T06:56:30;16.77;;;3.00;;
22176;SDS011;11254;50.098;8.726;2022-11-24T06:58:59;19.02;;;3.03;;
22176;SDS011;11254;50.098;8.726;2022-11-24T07:01:35;13.45;;;2.95;;
22176;SDS011;11254;50.098;8.726;2022-11-24T07:04:12;19.10;;;2.88;;
22176;SDS011;11254;50.098;8.726;2022-11-24T07:06:53;16.83;;;3.67;;
22176;SDS011;11254;50.098;8.726;2022-11-24T07:09:31;12.77;;;3.65;;
22176;SDS011;11254;50.098;8.726;2022-11-24T07:12:07;17.20;;;2.90;;
22176;SDS011;11254;50.098;8.726;2022-11-24T07:14:42;13.52;;;3.15;;
22176;SDS011;11254;50.098;8.726;2022-11-24T07:17:15;16.25;;;2.92;;
22176;SDS011;11254;50.098;8.726;2022-11-24T07:19:44;10.75;;;2.97;;
22176;SDS011;11254;50.098;8.726;2022-11-24T07:22:15;14.43;;;2.75;;
22176;SDS011;11254;50.098;8.726;2022-11-24T07:24:53;17.95;;;3.22;;
22176;SDS011;11254;50.098;8.726;2022-11-24T07:27:29;14.70;;;2.70;;
22176;SDS011;11254;50.098;8.726;2022-11-24T07:30:06;12.95;;;3.45;;
22176;SDS011;11254;50.098;8.726;2022-11-24T07:32:48;14.57;;;3.20;;
22176;SDS011;11254;50.098;8.726;2022-11-24T07:35:23;13.88;;;2.75;;
22176;SDS011;11254;50.098;8.726;2022-11-24T07:37:59;11.02;;;2.70;;
22176;SDS011;11254;50.098;8.726;2022-11-24T07:40:35;14.38;;;3.28;;
22176;SDS011;11254;50.098;8.726;2022-11-24T07:43:08;11.95;;;2.83;;
22176;SDS011;11254;50.098;8.726;2022-11-24T07:45:51;13.18;;;2.80;;
22176;SDS011;11254;50.098;8.726;2022-11-24T07:48:33;13.07;;;2.88;;
22176;SDS011;11254;50.098;8.726;2022-11-24T07:51:17;12.73;;;2.40;;
22176;SDS011;11254;50.098;8.726;2022-11-24T07:53:47;10.75;;;2.58;;
22176;SDS011;11254;50.098;8.726;2022-11-24T07:56:16;6.50;;;2.40;;
22176;SDS011;11254;50.098;8.726;2022-11-24T07:58:48;13.27;;;2.55;;
22176;SDS011;11254;50.098;8.726;2022-11-24T08:01:23;10.07;;;2.38;;
22176;SDS011;11254;50.098;8.726;2022-11-24T08:03:57;20.73;;;3.25;;
22176;SDS011;11254;50.098;8.726;2022-11-24T08:06:32;18.85;;;2.50;;
22176;SDS011;11254;50.098;8.726;2022-11-24T08:09:15;12.07;;;3.15;;
22176;SDS011;11254;50.098;8.726;2022-11-24T08:11:49;21.40;;;2.88;;
22176;SDS011;11254;50.098;8.726;2022-11-24T08:14:19;10.15;;;2.42;;
22176;SDS011;11254;50.098;8.726;2022-11-24T08:16:54;13.98;;;3.47;;
22176;SDS011;11254;50.098;8.726;2022-11-24T08:19:25;13.40;;;2.58;;
22176;SDS011;11254;50.098;8.726;2022-11-24T08:21:53;18.60;;;2.88;;
22176;SDS011;11254;50.098;8.726;2022-11-24T08:24:23;11.15;;;2.42;;
22176;SDS011;11254;50.098;8.726;2022-11-24T08:26:51;9.85;;;2.13;;
22176;SDS011;11254;50.098;8.726;2022-11-24T08:29:20;14.90;;;3.05;;
22176;SDS011;11254;50.098;8.726;2022-11-24T08:31:48;13.07;;;2.92;;
22176;SDS011;11254;50.098;8.726;2022-11-24T08:34:17;17.75;;;3.00;;
22176;SDS011;11254;50.098;8.726;2022-11-24T08:36:45;14.88;;;2.50;;
22176;SDS011;11254;50.098;8.726;2022-11-24T08:39:13;17.48;;;2.92;;
22176;SDS011;11254;50.098;8.726;2022-11-24T08:41:43;11.07;;;2.10;;
22176;SDS011;11254;50.098;8.726;2022-11-24T08:44:11;12.88;;;3.38;;
22176;SDS011;11254;50.098;8.726;2022-11-24T08:46:41;12.10;;;2.40;;
22176;SDS011;11254;50.098;8.726;2022-11-24T08:49:09;13.07;;;3.78;;
22176;SDS011;11254;50.098;8.726;2022-11-24T08:51:41;16.38;;;2.95;;
22176;SDS011;11254;50.098;8.726;2022-11-24T08:54:09;15.48;;;2.78;;
22176;SDS011;11254;50.098;8.726;2022-11-24T08:56:38;12.65;;;2.83;;
22176;SDS011;11254;50.098;8.726;2022-11-24T08:59:10;8.25;;;2.40;;
22176;SDS011;11254;50.098;8.726;2022-11-24T09:01:40;8.70;;;2.05;;
22176;SDS011;11254;50.098;8.726;2022-11-24T09:04:19;14.27;;;1.88;;
22176;SDS011;11254;50.098;8.726;2022-11-24T09:06:53;8.82;;;2.25;;
22176;SDS011;11254;50.098;8.726;2022-11-24T09:09:23;12.52;;;2.15;;
22176;SDS011;11254;50.098;8.726;2022-11-24T09:11:51;10.18;;;2.33;;
22176;SDS011;11254;50.098;8.726;2022-11-24T09:14:21;5.18;;;1.88;;
22176;SDS011;11254;50.098;8.726;2022-11-24T09:16:49;12.75;;;2.47;;
22176;SDS011;11254;50.098;8.726;2022-11-24T09:19:17;8.38;;;2.58;;
22176;SDS011;11254;50.098;8.726;2022-11-24T09:21:46;12.45;;;3.17;;
22176;SDS011;11254;50.098;8.726;2022-11-24T09:24:14;11.75;;;2.65;;
22176;SDS011;11254;50.098;8.726;2022-11-24T09:26:42;12.60;;;2.55;;
22176;SDS011;11254;50.098;8.726;2022-11-24T09:29:13;10.68;;;2.50;;
22176;SDS011;11254;50.098;8.726;2022-11-24T09:31:44;12.68;;;2.22;;
22176;SDS011;11254;50.098;8.726;2022-11-24T09:34:13;8.77;;;2.47;;
22176;SDS011;11254;50.098;8.726;2022-11-24T09:36:41;9.60;;;1.90;;
22176;SDS011;11254;50.098;8.726;2022-11-24T09:39:10;10.23;;;2.75;;
22176;SDS011;11254;50.098;8.726;2022-11-24T09:44:44;10.77;;;2.00;;
22176;SDS011;11254;50.098;8.726;2022-11-24T09:47:20;14.40;;;2.30;;
22176;SDS011;11254;50.098;8.726;2022-11-24T09:49:52;11.20;;;2.20;;
22176;SDS011;11254;50.098;8.726;2022-11-24T09:52:27;5.18;;;1.48;;
22176;SDS011;11254;50.098;8.726;2022-11-24T09:54:59;10.30;;;1.60;;
22176;SDS011;11254;50.098;8.726;2022-11-24T09:57:30;7.03;;;1.80;;
22176;SDS011;11254;50.098;8.726;2022-11-24T10:00:06;12.73;;;1.80;;
22176;SDS011;11254;50.098;8.726;2022-11-24T10:02:40;8.20;;;1.83;;
22176;SDS011;11254;50.098;8.726;2022-11-24T10:05:15;8.55;;;2.90;;
22176;SDS011;11254;50.098;8.726;2022-11-24T10:07:46;9.82;;;2.10;;
22176;SDS011;11254;50.098;8.726;2022-11-24T10:10:16;10.55;;;1.63;;
22176;SDS011;11254;50.098;8.726;2022-11-24T10:12:52;8.07;;;1.80;;
22176;SDS011;11254;50.098;8.726;2022-11-24T10:15:28;10.52;;;1.73;;
22176;SDS011;11254;50.098;8.726;2022-11-24T10:18:15;8.00;;;1.63;;
22176;SDS011;11254;50.098;8.726;2022-11-24T10:20:51;7.15;;;1.75;;
22176;SDS011;11254;50.098;8.726;2022-11-24T10:23:25;7.78;;;1.80;;
22176;SDS011;11254;50.098;8.726;2022-11-24T10:26:03;8.27;;;1.75;;
22176;SDS011;11254;50.098;8.726;2022-11-24T10:28:35;8.95;;;1.73;;
22176;SDS011;11254;50.098;8.726;2022-11-24T10:31:14;12.60;;;2.30;;
22176;SDS011;11254;50.098;8.726;2022-11-24T10:33:46;14.35;;;2.60;;
22176;SDS011;11254;50.098;8.726;2022-11-24T10:36:19;8.23;;;2.00;;
22176;SDS011;11254;50.098;8.726;2022-11-24T10:38:50;9.95;;;1.88;;
22176;SDS011;11254;50.098;8.726;2022-11-24T10:41:22;11.65;;;2.40;;
22176;SDS011;11254;50.098;8.726;2022-11-24T10:43:52;9.18;;;1.52;;
22176;SDS011;11254;50.098;8.726;2022-11-24T10:46:21;8.60;;;1.42;;
22176;SDS011;11254;50.098;8.726;2022-11-24T10:48:52;6.65;;;1.58;;
22176;SDS011;11254;50.098;8.726;2022-11-24T10:51:35;8.90;;;1.90;;
22176;SDS011;11254;50.098;8.726;2022-11-24T10:54:06;8.88;;;1.63;;
22176;SDS011;11254;50.098;8.726;2022-11-24T10:56:38;9.68;;;2.33;;
22176;SDS011;11254;50.098;8.726;2022-11-24T10:59:20;8.50;;;1.83;;
22176;SDS011;11254;50.098;8.726;2022-11-24T11:01:51;7.10;;;1.70;;
22176;SDS011;11254;50.098;8.726;2022-11-24T11:04:34;8.52;;;1.75;;
22176;SDS011;11254;50.098;8.726;2022-11-24T11:07:08;7.25;;;1.52;;
22176;SDS011;11254;50.098;8.726;2022-11-24T11:09:37;9.88;;;2.10;;
22176;SDS011;11254;50.098;8.726;2022-11-24T11:12:09;9.93;;;2.45;;
22176;SDS011;11254;50.098;8.726;2022-11-24T11:14:59;11.13;;;1.80;;
22176;SDS011;11254;50.098;8.726;2022-11-24T11:17:47;6.60;;;1.35;;
22176;SDS011;11254;50.098;8.726;2022-11-24T11:20:20;8.15;;;1.40;;
22176;SDS011;11254;50.098;8.726;2022-11-24T11:22:49;6.35;;;1.60;;
22176;SDS011;11254;50.098;8.726;2022-11-24T11:25:19;6.72;;;1.50;;
22176;SDS011;11254;50.098;8.726;2022-11-24T11:27:47;7.95;;;1.58;;
22176;SDS011;11254;50.098;8.726;2022-11-24T11:30:17;10.02;;;1.73;;
22176;SDS011;11254;50.098;8.726;2022-11-24T11:33:16;10.02;;;1.35;;
22176;SDS011;11254;50.098;8.726;2022-11-24T11:36:07;10.88;;;1.50;;
22176;SDS011;11254;50.098;8.726;2022-11-24T11:38:37;5.97;;;1.45;;
22176;SDS011;11254;50.098;8.726;2022-11-24T11:41:07;9.82;;;1.52;;
22176;SDS011;11254;50.098;8.726;2022-11-24T11:43:38;10.75;;;1.83;;
22176;SDS011;11254;50.098;8.726;2022-11-24T11:46:08;7.18;;;1.40;;
22176;SDS011;11254;50.098;8.726;2022-11-24T11:48:39;12.90;;;1.90;;
22176;SDS011;11254;50.098;8.726;2022-11-24T11:51:16;8.60;;;1.55;;
22176;SDS011;11254;50.098;8.726;2022-11-24T11:53:51;5.68;;;1.52;;
22176;SDS011;11254;50.098;8.726;2022-11-24T11:56:22;8.10;;;1.77;;
22176;SDS011;11254;50.098;8.726;2022-11-24T12:01:45;6.65;;;1.70;;
22176;SDS011;11254;50.098;8.726;2022-11-24T12:04:23;7.82;;;1.55;;
22176;SDS011;11254;50.098;8.726;2022-11-24T12:06:59;8.10;;;1.50;;
22176;SDS011;11254;50.098;8.726;2022-11-24T12:09:34;10.55;;;1.55;;
22176;SDS011;11254;50.098;8.726;2022-11-24T12:12:18;10.93;;;1.45;;
22176;SDS011;11254;50.098;8.726;2022-11-24T12:14:52;8.18;;;1.40;;
22176;SDS011;11254;50.098;8.726;2022-11-24T12:17:25;7.05;;;1.42;;
22176;SDS011;11254;50.098;8.726;2022-11-24T12:20:01;7.28;;;1.38;;
22176;SDS011;11254;50.098;8.726;2022-11-24T12:22:34;8.32;;;1.58;;
22176;SDS011;11254;50.098;8.726;2022-11-24T12:25:12;7.30;;;1.25;;
22176;SDS011;11254;50.098;8.726;2022-11-24T12:27:43;6.93;;;1.35;;
22176;SDS011;11254;50.098;8.726;2022-11-24T12:30:16;9.15;;;1.70;;
22176;SDS011;11254;50.098;8.726;2022-11-24T12:32:52;9.35;;;1.55;;
22176;SDS011;11254;50.098;8.726;2022-11-24T12:35:24;4.18;;;1.17;;
22176;SDS011;11254;50.098;8.726;2022-11-24T12:37:59;10.65;;;1.60;;
22176;SDS011;11254;50.098;8.726;2022-11-24T12:40:34;10.68;;;1.30;;
22176;SDS011;11254;50.098;8.726;2022-11-24T12:43:12;5.05;;;0.90;;
22176;SDS011;11254;50.098;8.726;2022-11-24T12:45:47;4.95;;;1.27;;
22176;SDS011;11254;50.098;8.726;2022-11-24T12:48:22;7.80;;;1.33;;
22176;SDS011;11254;50.098;8.726;2022-11-24T12:50:55;7.68;;;1.00;;
22176;SDS011;11254;50.098;8.726;2022-11-24T12:53:26;4.85;;;1.10;;
22176;SDS011;11254;50.098;8.726;2022-11-24T12:55:55;5.60;;;1.60;;
22176;SDS011;11254;50.098;8.726;2022-11-24T12:58:27;5.45;;;1.48;;
22176;SDS011;11254;50.098;8.726;2022-11-24T13:01:07;8.93;;;1.55;;
22176;SDS011;11254;50.098;8.726;2022-11-24T13:03:48;5.72;;;1.33;;
22176;SDS011;11254;50.098;8.726;2022-11-24T13:06:20;6.03;;;1.20;;
22176;SDS011;11254;50.098;8.726;2022-11-24T13:08:51;8.20;;;1.48;;
22176;SDS011;11254;50.098;8.726;2022-11-24T13:14:16;8.27;;;1.60;;
22176;SDS011;11254;50.098;8.726;2022-11-24T13:16:55;6.13;;;1.15;;
22176;SDS011;11254;50.098;8.726;2022-11-24T13:19:44;9.95;;;1.38;;
22176;SDS011;11254;50.098;8.726;2022-11-24T13:22:14;6.95;;;1.50;;
22176;SDS011;11254;50.098;8.726;2022-11-24T13:24:44;9.27;;;1.20;;
22176;SDS011;11254;50.098;8.726;2022-11-24T13:27:25;5.15;;;0.80;;
22176;SDS011;11254;50.098;8.726;2022-11-24T13:29:54;6.50;;;1.10;;
22176;SDS011;11254;50.098;8.726;2022-11-24T13:35:11;7.70;;;1.38;;
22176;SDS011;11254;50.098;8.726;2022-11-24T13:37:44;8.70;;;1.67;;
22176;SDS011;11254;50.098;8.726;2022-11-24T13:40:37;7.88;;;1.27;;
22176;SDS011;11254;50.098;8.726;2022-11-24T13:43:20;5.97;;;1.10;;
22176;SDS011;11254;50.098;8.726;2022-11-24T13:45:50;6.57;;;0.95;;
22176;SDS011;11254;50.098;8.726;2022-11-24T13:51:13;4.90;;;1.00;;
22176;SDS011;11254;50.098;8.726;2022-11-24T13:53:44;8.00;;;2.50;;
22176;SDS011;11254;50.098;8.726;2022-11-24T13:56:22;9.30;;;1.48;;
22176;SDS011;11254;50.098;8.726;2022-11-24T13:58:52;8.10;;;1.27;;
22176;SDS011;11254;50.098;8.726;2022-11-24T14:01:22;9.88;;;1.90;;
22176;SDS011;11254;50.098;8.726;2022-11-24T14:04:02;9.27;;;1.58;;
22176;SDS011;11254;50.098;8.726;2022-11-24T14:06:54;4.90;;;1.20;;
22176;SDS011;11254;50.098;8.726;2022-11-24T14:09:33;8.20;;;2.45;;
22176;SDS011;11254;50.098;8.726;2022-11-24T14:12:05;9.55;;;1.95;;
22176;SDS011;11254;50.098;8.726;2022-11-24T14:14:35;7.88;;;1.17;;
22176;SDS011;11254;50.098;8.726;2022-11-24T14:17:04;6.32;;;1.17;;
22176;SDS011;11254;50.098;8.726;2022-11-24T14:19:32;7.22;;;1.20;;
22176;SDS011;11254;50.098;8.726;2022-11-24T14:22:01;5.18;;;1.10;;
22176;SDS011;11254;50.098;8.726;2022-11-24T14:24:30;6.57;;;1.30;;
22176;SDS011;11254;50.098;8.726;2022-11-24T14:27:11;6.30;;;1.40;;
22176;SDS011;11254;50.098;8.726;2022-11-24T14:29:50;5.72;;;1.48;;
22176;SDS011;11254;50.098;8.726;2022-11-24T14:32:20;5.45;;;1.40;;
22176;SDS011;11254;50.098;8.726;2022-11-24T14:34:48;6.70;;;1.27;;
22176;SDS011;11254;50.098;8.726;2022-11-24T14:37:17;4.13;;;1.05;;
22176;SDS011;11254;50.098;8.726;2022-11-24T14:39:46;10.93;;;1.50;;
22176;SDS011;11254;50.098;8.726;2022-11-24T14:42:19;8.00;;;1.10;;
22176;SDS011;11254;50.098;8.726;2022-11-24T14:44:49;9.57;;;1.30;;
22176;SDS011;11254;50.098;8.726;2022-11-24T14:47:21;6.97;;;1.20;;
22176;SDS011;11254;50.098;8.726;2022-11-24T14:49:57;6.72;;;1.60;;
22176;SDS011;11254;50.098;8.726;2022-11-24T14:52:26;4.55;;;1.02;;
22176;SDS011;11254;50.098;8.726;2022-11-24T14:54:55;4.38;;;0.93;;
22176;SDS011;11254;50.098;8.726;2022-11-24T14:57:44;8.02;;;1.10;;
22176;SDS011;11254;50.098;8.726;2022-11-24T15:00:15;4.93;;;1.13;;
22176;SDS011;11254;50.098;8.726;2022-11-24T15:02:46;5.80;;;1.38;;
22176;SDS011;11254;50.098;8.726;2022-11-24T15:05:23;6.20;;;1.10;;
22176;SDS011;11254;50.098;8.726;2022-11-24T15:07:58;7.68;;;1.63;;
22176;SDS011;11254;50.098;8.726;2022-11-24T15:10:29;12.98;;;1.58;;
22176;SDS011;11254;50.098;8.726;2022-11-24T15:13:01;5.38;;;1.00;;
22176;SDS011;11254;50.098;8.726;2022-11-24T15:15:32;8.18;;;1.17;;
22176;SDS011;11254;50.098;8.726;2022-11-24T15:18:01;7.93;;;1.38;;
22176;SDS011;11254;50.098;8.726;2022-11-24T15:20:31;4.30;;;1.20;;
22176;SDS011;11254;50.098;8.726;2022-11-24T15:23:20;8.20;;;1.45;;
22176;SDS011;11254;50.098;8.726;2022-11-24T15:25:49;8.23;;;1.30;;
22176;SDS011;11254;50.098;8.726;2022-11-24T15:28:19;7.60;;;1.58;;
22176;SDS011;11254;50.098;8.726;2022-11-24T15:30:51;8.73;;;1.95;;
22176;SDS011;11254;50.098;8.726;2022-11-24T15:33:20;6.75;;;1.15;;
22176;SDS011;11254;50.098;8.726;2022-11-24T15:35:49;6.32;;;1.77;;